Observations for AUCKLAND INTL A, New Zealand (NZAA)

NZAA 221430Z AUTO 15003KT 9999 NCD 13/12 Q1025 NOSIG
NZAA 221400Z AUTO 16003KT 9999 NCD 13/11 Q1025 NOSIG
NZAA 221330Z AUTO 16003KT 9999 NCD 13/12 Q1025 NOSIG
NZAA 221300Z AUTO 16003KT 9999 NCD 13/12 Q1026 NOSIG
NZAA 221230Z AUTO 14003KT 9999 NCD 13/12 Q1026 NOSIG
NZAA 221200Z AUTO 19004KT 9999 NCD 13/11 Q1026 NOSIG
NZAA 221130Z AUTO 18004KT 9999 NCD 13/11 Q1026 NOSIG
NZAA 221100Z AUTO 17005KT 9999 NCD 14/12 Q1026 NOSIG
NZAA 221030Z AUTO 19006KT 9999 NCD 14/12 Q1026 NOSIG
NZAA 221000Z AUTO 19006KT 9999 NCD 14/12 Q1026 NOSIG
NZAA 220930Z AUTO 19008KT 9999 NCD 15/12 Q1026 NOSIG
NZAA 220900Z AUTO 21007KT 9999 NCD 15/12 Q1026 NOSIG
NZAA 220830Z AUTO 23007KT 9999 NCD 15/12 Q1026 NOSIG
NZAA 220800Z AUTO 22008KT 9999 BKN038/// 15/12 Q1026 NOSIG  
NZAA 220730Z AUTO 22010KT 9999 SCT039/// 15/12 Q1025 NOSIG  
NZAA 220700Z AUTO 24010KT 9999 SCT038/// 15/12 Q1025 NOSIG  
NZAA 220630Z AUTO 24010KT 9999 BKN040/// 16/12 Q1025 NOSIG  
NZAA 220600Z AUTO 23010KT 9999 FEW041/// 17/12 Q1025 NOSIG  
NZAA 220530Z AUTO 23011KT 9999 NCD 17/12 Q1025 NOSIG
NZAA 220500Z AUTO 22011KT 9999 NCD 18/12 Q1025 NOSIG
NZAA 220430Z AUTO 23011KT 9999 NCD 18/12 Q1025 NOSIG
NZAA 220400Z AUTO 23010KT 9999 NCD 18/12 Q1024 NOSIG
NZAA 220330Z AUTO 23011KT 9999 NCD 18/12 Q1025 NOSIG
NZAA 220300Z AUTO 23009KT 9999 NCD 19/12 Q1025 NOSIG
NZAA 220230Z AUTO 24010KT 9999 NCD 19/13 Q1025 NOSIG
NZAA 220200Z AUTO 23009KT 200V260 9999 SCT041/// 19/11 Q1025 NOSIG  
NZAA 220130Z AUTO 23010KT 9999 SCT041/// 19/13 Q1026 NOSIG  
NZAA 220100Z AUTO 24008KT 9999 SCT039/// 19/12 Q1026 NOSIG  
NZAA 220030Z AUTO 25008KT 210V280 9999 BKN037/// 18/11 Q1026 NOSIG  
NZAA 220000Z AUTO 23007KT 200V280 9999 BKN034/// 18/11 Q1026 NOSIG  
NZAA 212330Z AUTO 23007KT 9999 FEW035/// 17/11 Q1026 NOSIG  
NZAA 212300Z AUTO 25007KT 210V270 9999 BKN034/// 17/11 Q1026 NOSIG  
NZAA 212230Z AUTO 23006KT 170V270 9999 SCT034/// 17/11 Q1027 NOSIG  
NZAA 212200Z AUTO 23005KT 9999 BKN034/// 17/11 Q1027 NOSIG  
NZAA 212130Z AUTO 22004KT 140V260 9999 FEW031/// 17/11 Q1027 NOSIG  
NZAA 212100Z AUTO 19004KT 130V260 9999 BKN033/// 16/11 Q1027 NOSIG  
NZAA 212030Z AUTO 14004KT 110V170 9999 BKN033/// 15/11 Q1027 NOSIG  
NZAA 212000Z AUTO 13005KT 9999 OVC033/// 15/11 Q1027 NOSIG  
NZAA 211930Z AUTO 13004KT 9999 BKN032/// 15/11 Q1027 NOSIG  
NZAA 211900Z AUTO 10002KT 9999 OVC032/// 14/11 Q1026 NOSIG  
NZAA 211830Z AUTO 11002KT 9999 OVC033/// 14/11 Q1026 NOSIG  
NZAA 211800Z AUTO 10003KT 9999 OVC034/// 14/11 Q1026 NOSIG  
NZAA 211730Z AUTO 36002KT 9999 OVC034/// 13/11 Q1026 NOSIG  
NZAA 211700Z AUTO 31004KT 9999 OVC032/// 13/11 Q1026 NOSIG  
NZAA 211630Z AUTO 05003KT 9999 OVC030/// 13/11 Q1026 NOSIG  
NZAA 211600Z AUTO 05003KT 9999 OVC033/// 13/11 Q1026 NOSIG  
NZAA 211530Z AUTO 05002KT 9999 OVC032/// 13/11 Q1026 NOSIG  
NZAA 211500Z AUTO 11002KT 9999 SCT022/// OVC032/// 13/12 Q1026 NOSIG
NZAA 211430Z AUTO 09001KT 9999 SCT022/// OVC030/// 12/11 Q1026 TEMPO BKN012 
NZAA 211400Z AUTO 09002KT 9999 SCT031/// 12/11 Q1026 TEMPO BKN012